createdAt,value
2022-09-04T00:02:13.820Z,64.8
2022-09-04T00:16:41.554Z,67.8
2022-09-04T00:31:09.224Z,67.6
2022-09-04T00:45:33.869Z,70.7
2022-09-04T01:00:01.036Z,68
2022-09-04T01:14:28.670Z,71
2022-09-04T04:28:08.982Z,75.9
2022-09-04T04:42:30.986Z,81.9
2022-09-04T04:57:00.244Z,79.5
2022-09-04T05:11:24.521Z,81.9
2022-09-04T05:25:52.486Z,83.1
2022-09-04T05:40:22.584Z,80.2
2022-09-04T05:54:50.053Z,80.5
2022-09-04T06:09:19.458Z,80.4
2022-09-04T06:23:48.965Z,81.4
2022-09-04T06:38:18.727Z,82.1
2022-09-04T06:52:48.642Z,83.8
2022-09-04T07:07:19.387Z,84.1
2022-09-04T07:21:50.590Z,81.3
2022-09-04T07:36:31.889Z,68.1
2022-09-04T07:51:10.354Z,58.8
2022-09-04T08:05:35.536Z,55.2
2022-09-04T08:20:15.803Z,51.3
2022-09-04T08:34:47.925Z,49.8
2022-09-04T08:49:16.556Z,48.4
2022-09-04T09:03:46.737Z,42.7
2022-09-04T09:18:13.859Z,43.3
2022-09-04T09:32:40.622Z,44
2022-09-04T09:46:59.160Z,47
2022-09-04T10:01:25.421Z,48.2
2022-09-04T10:15:52.826Z,48.1
2022-09-04T10:30:21.309Z,45.9
2022-09-04T10:44:50.373Z,46.6
2022-09-04T10:59:13.879Z,49.1
2022-09-04T11:13:41.079Z,49.8
2022-09-04T11:28:16.112Z,45.1
2022-09-04T11:42:40.597Z,47.2
2022-09-04T11:57:16.498Z,46.2
2022-09-04T12:11:44.664Z,44.6
2022-09-04T12:26:11.784Z,42.7
2022-09-04T12:40:34.818Z,46.9
2022-09-04T12:55:11.371Z,44.8
2022-09-04T13:09:53.848Z,42.8
2022-09-04T13:24:16.360Z,44.4
2022-09-04T13:38:48.378Z,43.4
2022-09-04T13:53:11.762Z,43.7
2022-09-04T14:07:45.743Z,42.2
2022-09-04T14:22:15.993Z,42.6
2022-09-04T14:36:40.838Z,42.2
2022-09-04T14:51:10.908Z,41.9
2022-09-04T15:05:39.027Z,40.5
2022-09-04T15:20:17.089Z,41.7
2022-09-04T15:34:45.017Z,39.9
2022-09-04T15:49:08.382Z,41.5
2022-09-04T16:03:36.704Z,41.1
2022-09-04T16:18:10.668Z,41.3
2022-09-04T16:32:36.822Z,42.3
2022-09-04T16:47:11.042Z,44.3
2022-09-04T17:01:35.117Z,45.1
2022-09-04T17:16:03.619Z,45.4
2022-09-04T17:30:31.904Z,45.7
2022-09-04T17:44:57.950Z,46.9
2022-09-04T17:59:24.739Z,48
2022-09-04T18:13:52.245Z,49.2
2022-09-04T18:28:20.050Z,49.9
2022-09-04T18:51:12.368Z,51.3
2022-09-04T19:05:04.405Z,51.7
2022-09-04T19:19:32.849Z,55.3
2022-09-04T19:34:01.375Z,55.8
2022-09-04T19:48:30.665Z,58.9
2022-09-04T20:02:55.042Z,60.5
2022-09-04T20:17:22.868Z,63.2
2022-09-04T20:31:50.581Z,65.4
2022-09-04T20:53:04.954Z,64.1
2022-09-04T21:06:57.838Z,63.6
2022-09-04T21:21:25.294Z,65.6
2022-09-04T21:35:52.756Z,69.1
2022-09-04T21:50:37.378Z,68.4
2022-09-04T22:05:05.674Z,69.6
2022-09-04T22:19:34.551Z,68.9
2022-09-04T22:34:17.476Z,68.8
2022-09-04T22:48:36.314Z,70
2022-09-04T23:03:10.867Z,73.2
2022-09-04T23:17:33.615Z,74.9
2022-09-04T23:32:09.565Z,75
2022-09-04T23:46:31.617Z,73
